Aeroporto :
LOGIN :

Iscrizione | Disclaimer

   EN    FR    IT 

 










Sommario :    VFR   VFR Marginale   IFR   IFR Intensivo   IFR Molto Intensivo
Visibilità : 
Base nubi : 
>= 8 km
>= 3000ft
5 / 8 km
1000 / 3000 ft
1500m / 5 km
500 / 1000 ft
800 / 1500m
200 / 500 ft
< 800m
< 200 ft
Simboli :   Temporali  Nebbia  Neve Forte  Precipitazioni Forti  Vento > 20 kt
SIGMETs :   Varie  Temporali  Ghiacco  Turbolenza  Onda orograficha  Ceneri Vulcaniche






- Altitudine del aeroporto : 364 ft
- Codice IATA : FRA


EDDF - Frankfurt Int.

ULTIMO METAR :
  • 200020Z AUTO 31006KT 9999 BKN023 BKN038 BKN048 07/03 Q1012

METARs OBSOLETI :
  • 192350Z AUTO 30007KT 9999 -SHRA BKN023 BKN031 FEW///CB 07/03 Q1012 RESHRA NOSIG
  • 192320Z AUTO 27012KT 9999 -SHRA SCT025 BKN034 FEW///CB 07/03 Q1012 RESHRA BECMG NSW
  • 192250Z AUTO 26010KT 9999 SCT031 BKN039 06/03 Q1011 NOSIG
  • 192220Z AUTO 28010KT 250V310 9999 FEW027 07/02 Q1011
  • 192150Z AUTO 28015KT 9999 FEW033 07/02 Q1011 NOSIG
  • 192120Z AUTO 29012KT 9999 FEW028 07/03 Q1011 NOSIG
  • 192050Z AUTO 28015KT 9999 SCT028 BKN034 07/03 Q1010 NOSIG
  • 192020Z AUTO 27016KT 9999 FEW028 BKN036 07/03 Q1010 NOSIG
  • 191950Z AUTO 27013KT 9999 FEW025 SCT031 06/03 Q1010 NOSIG

TAF TAF EDDF
Valido dal 20 a 00 ore il 21 a 06 ore UTC


192300Z 2000/2106 30010KT 9999 SCT030
PROB30
TEMPO 2000/2002 SHRA BKN030TCU
TEMPO 2002/2010 BKN035
TEMPO 2011/2024 SHRA BKN025CB
PROB30
TEMPO 2013/2018 TSRA



MetMap, La meteo Aeronautica in un colpo d'occhio ! - Copyright ORBIFLY Dicembre 2007 - Disclaimer

ORBIFLY MET'MAP TEAM :

Programmazione e sviluppo : Alexandra Zaïnal
Concezione : Baudouin d'Aumeries
Supporto tecnico e logistico : Manuel Goepfert
Aiuto : Marc-Olivier Méhu
Aiuto per la traduzione : Arnaldo La Scala




FONTI E CREDITI :

   NOAA